createdAt,value
2018-04-01T00:01:01.511Z,12.97
2018-04-01T00:03:28.664Z,11.20
2018-04-01T00:05:55.696Z,9.90
2018-04-01T00:08:22.722Z,9.53
2018-04-01T00:10:49.865Z,9.00
2018-04-01T00:13:16.910Z,10.63
2018-04-01T00:15:44.015Z,11.17
2018-04-01T00:18:11.104Z,11.10
2018-04-01T00:20:38.148Z,8.97
2018-04-01T00:23:05.181Z,12.33
2018-04-01T00:25:32.288Z,8.93
2018-04-01T00:27:59.323Z,10.20
2018-04-01T00:30:26.362Z,11.73
2018-04-01T00:32:53.542Z,10.00
2018-04-01T00:35:20.644Z,12.03
2018-04-01T00:37:47.806Z,12.57
2018-04-01T00:40:14.896Z,13.20
2018-04-01T00:42:41.935Z,12.50
2018-04-01T00:45:08.987Z,16.87
2018-04-01T00:47:36.161Z,15.20
2018-04-01T00:50:03.198Z,16.40
2018-04-01T00:52:30.234Z,12.33
2018-04-01T00:54:57.378Z,13.80
2018-04-01T00:57:24.392Z,14.13
2018-04-01T00:59:51.451Z,12.30
2018-04-01T01:02:18.586Z,12.43
2018-04-01T01:04:45.688Z,11.00
2018-04-01T01:07:12.786Z,11.43
2018-04-01T01:09:40.050Z,14.27
2018-04-01T01:12:07.176Z,13.80
2018-04-01T01:14:34.231Z,12.50
2018-04-01T01:17:02.256Z,14.17
2018-04-01T01:19:29.293Z,11.57
2018-04-01T01:21:56.336Z,11.23
2018-04-01T01:24:23.515Z,12.73
2018-04-01T01:26:50.549Z,13.83
2018-04-01T01:29:17.660Z,16.17
2018-04-01T01:31:44.751Z,12.53
2018-04-01T01:34:11.846Z,12.50
2018-04-01T01:36:38.896Z,11.67
2018-04-01T01:39:06.088Z,14.77
2018-04-01T01:41:33.178Z,13.90
2018-04-01T01:44:00.283Z,13.37
2018-04-01T01:46:27.441Z,12.37
2018-04-01T01:48:54.759Z,13.33
2018-04-01T01:51:21.858Z,18.33
2018-04-01T01:53:50.090Z,16.43
2018-04-01T01:56:17.236Z,18.73
2018-04-01T01:58:44.286Z,14.53
2018-04-01T02:01:11.395Z,13.30
2018-04-01T02:03:38.442Z,12.60
2018-04-01T02:06:05.482Z,14.53
2018-04-01T02:08:32.613Z,12.47
2018-04-01T02:10:59.719Z,11.73
2018-04-01T02:13:26.771Z,13.87
2018-04-01T02:15:53.953Z,10.80
2018-04-01T02:18:20.981Z,15.60
2018-04-01T02:20:48.100Z,13.50
2018-04-01T02:23:15.341Z,10.97
2018-04-01T02:25:42.443Z,11.53
2018-04-01T02:28:09.486Z,12.80
2018-04-01T02:30:36.697Z,12.23
2018-04-01T02:33:03.736Z,9.80
2018-04-01T02:35:30.873Z,12.10
2018-04-01T02:37:58.041Z,13.03
2018-04-01T02:40:25.083Z,13.83
2018-04-01T02:42:52.199Z,14.33
2018-04-01T02:45:19.360Z,11.27
2018-04-01T02:47:46.394Z,11.83
2018-04-01T02:50:13.510Z,11.20
2018-04-01T02:52:40.733Z,14.40
2018-04-01T02:55:07.853Z,13.57
2018-04-01T02:57:34.895Z,9.73
2018-04-01T03:00:01.980Z,11.93
2018-04-01T03:02:29.044Z,12.83
2018-04-01T03:04:56.086Z,15.23
2018-04-01T03:07:23.269Z,10.70
2018-04-01T03:09:50.324Z,11.37
2018-04-01T03:12:17.384Z,11.57
2018-04-01T03:14:44.627Z,11.17
2018-04-01T03:17:11.670Z,14.90
2018-04-01T03:19:38.701Z,13.10
2018-04-01T03:22:05.802Z,15.13
2018-04-01T03:24:32.842Z,9.30
2018-04-01T03:27:00.005Z,12.47
2018-04-01T03:29:27.189Z,16.97
2018-04-01T03:31:54.304Z,9.17
2018-04-01T03:34:21.344Z,15.87
2018-04-01T03:36:48.592Z,14.57
2018-04-01T03:39:15.693Z,13.30
2018-04-01T03:41:42.802Z,14.83
2018-04-01T03:44:09.997Z,13.73
2018-04-01T03:46:37.029Z,15.33
2018-04-01T03:49:04.081Z,15.07
2018-04-01T03:51:31.242Z,13.57
2018-04-01T03:53:58.344Z,12.80
2018-04-01T03:56:25.396Z,13.30
2018-04-01T03:58:52.498Z,13.20
2018-04-01T04:01:19.602Z,12.90
2018-04-01T04:03:46.737Z,12.43
2018-04-01T04:06:14.020Z,11.37
2018-04-01T04:08:41.091Z,11.13
2018-04-01T04:11:08.161Z,12.93
2018-04-01T04:13:35.346Z,14.10
2018-04-01T04:16:02.384Z,12.67
2018-04-01T04:18:29.419Z,11.63
2018-04-01T04:20:56.594Z,15.63
2018-04-01T04:23:23.682Z,13.47
2018-04-01T04:25:50.730Z,16.33
2018-04-01T04:28:17.838Z,13.07
2018-04-01T04:30:44.879Z,15.57
2018-04-01T04:33:11.974Z,18.23
2018-04-01T04:35:39.119Z,14.03
2018-04-01T04:38:06.160Z,10.30
2018-04-01T04:40:33.208Z,11.87
2018-04-01T04:43:00.378Z,10.73
2018-04-01T04:45:27.407Z,7.03
2018-04-01T04:47:54.444Z,16.40
2018-04-01T04:50:21.533Z,10.57
2018-04-01T04:52:49.006Z,14.97
2018-04-01T04:55:16.081Z,13.57
2018-04-01T04:57:43.246Z,22.70
2018-04-01T05:00:10.278Z,15.20
2018-04-01T05:02:37.310Z,19.20
2018-04-01T05:05:04.402Z,11.83
2018-04-01T05:07:31.438Z,15.77
2018-04-01T05:09:58.482Z,14.63
2018-04-01T05:12:25.642Z,13.97
2018-04-01T05:14:52.685Z,10.20
2018-04-01T05:17:19.713Z,14.80
2018-04-01T05:19:46.990Z,10.03
2018-04-01T05:22:14.139Z,7.43
2018-04-01T05:24:41.176Z,12.53
2018-04-01T05:27:08.350Z,11.17
2018-04-01T05:29:35.454Z,9.50
2018-04-01T05:32:02.559Z,11.30
2018-04-01T05:34:29.650Z,12.37
2018-04-01T05:36:57.182Z,11.40
2018-04-01T05:39:24.218Z,10.63
2018-04-01T05:41:51.304Z,11.87
2018-04-01T05:44:18.443Z,8.57
2018-04-01T05:46:45.489Z,9.43
2018-04-01T05:49:13.062Z,10.03
2018-04-01T05:51:40.162Z,11.37
2018-04-01T05:54:07.279Z,8.37
2018-04-01T05:56:34.373Z,9.93
2018-04-01T05:59:01.479Z,14.00
2018-04-01T06:01:28.571Z,9.83
2018-04-01T06:03:55.665Z,7.63
2018-04-01T06:06:22.734Z,10.30
2018-04-01T06:08:49.890Z,16.63
2018-04-01T06:11:17.123Z,13.73
2018-04-01T06:13:44.222Z,12.93
2018-04-01T06:16:11.261Z,13.77
2018-04-01T06:18:39.210Z,12.87
2018-04-01T06:21:06.581Z,17.63
2018-04-01T06:23:33.673Z,9.40
2018-04-01T06:26:00.839Z,12.07
2018-04-01T06:28:28.775Z,10.67
2018-04-01T06:30:55.837Z,10.87
2018-04-01T06:33:23.016Z,10.70
2018-04-01T06:35:50.038Z,9.10
2018-04-01T06:38:17.138Z,11.30
2018-04-01T06:40:44.291Z,10.77
2018-04-01T06:43:11.331Z,11.63
2018-04-01T06:45:38.373Z,8.63
2018-04-01T06:48:05.463Z,11.90
2018-04-01T06:50:32.573Z,12.20
2018-04-01T06:52:59.610Z,10.97
2018-04-01T06:55:26.806Z,9.60
2018-04-01T06:57:53.931Z,13.03
2018-04-01T07:00:21.018Z,13.13
2018-04-01T07:02:48.119Z,8.97
2018-04-01T07:05:15.145Z,9.83
2018-04-01T07:07:42.199Z,12.63
2018-04-01T07:10:09.398Z,9.13
2018-04-01T07:12:36.489Z,11.93
2018-04-01T07:15:03.526Z,11.57
2018-04-01T07:17:30.705Z,12.30
2018-04-01T07:19:57.741Z,8.33
2018-04-01T07:22:24.775Z,16.50
2018-04-01T07:24:51.884Z,11.23
2018-04-01T07:27:18.987Z,11.97
2018-04-01T07:29:46.041Z,11.57
2018-04-01T07:32:13.138Z,12.93
2018-04-01T07:34:40.226Z,8.47
2018-04-01T07:37:08.043Z,16.57
2018-04-01T07:39:35.135Z,13.37
2018-04-01T07:42:02.167Z,11.30
2018-04-01T07:44:29.282Z,11.73
2018-04-01T07:46:56.453Z,11.43
2018-04-01T07:49:23.553Z,12.20
2018-04-01T07:51:50.684Z,5.37
2018-04-01T07:54:17.768Z,14.60
2018-04-01T07:56:45.310Z,9.83
2018-04-01T07:59:12.367Z,6.97
2018-04-01T08:01:39.542Z,9.63
2018-04-01T08:04:06.574Z,11.70
2018-04-01T08:06:33.640Z,8.40
2018-04-01T08:09:01.717Z,9.00
2018-04-01T08:11:28.752Z,12.33
2018-04-01T08:13:55.848Z,10.83
2018-04-01T08:16:22.985Z,12.47
2018-04-01T08:18:50.027Z,7.40
2018-04-01T08:21:17.066Z,8.70
2018-04-01T08:23:44.254Z,10.00
2018-04-01T08:26:11.302Z,6.57
2018-04-01T08:28:38.418Z,7.57
2018-04-01T08:31:05.686Z,11.57
2018-04-01T08:33:32.723Z,12.27
2018-04-01T08:36:00.377Z,9.07
2018-04-01T08:38:27.477Z,5.77
2018-04-01T08:40:54.604Z,8.37
2018-04-01T08:43:21.699Z,6.00
2018-04-01T08:45:48.923Z,10.17
2018-04-01T08:48:15.967Z,2.70
2018-04-01T08:50:43.006Z,3.77
2018-04-01T08:53:10.228Z,4.27
2018-04-01T08:55:37.318Z,17.50
2018-04-01T08:58:04.580Z,3.60
2018-04-01T09:00:31.670Z,6.57
2018-04-01T09:02:58.722Z,2.57
2018-04-01T09:05:25.764Z,1.93
2018-04-01T09:07:52.958Z,1.93
2018-04-01T09:10:19.981Z,2.30
2018-04-01T09:12:47.012Z,4.93
2018-04-01T09:15:14.101Z,8.40
2018-04-01T09:17:41.134Z,3.13
2018-04-01T09:20:08.241Z,1.87
2018-04-01T09:22:35.327Z,3.43
2018-04-01T09:25:02.368Z,3.63
2018-04-01T09:27:29.466Z,1.97
2018-04-01T09:29:56.640Z,2.27
2018-04-01T09:32:23.689Z,4.73
2018-04-01T09:34:50.760Z,5.53
2018-04-01T09:37:18.007Z,4.07
2018-04-01T09:39:45.048Z,1.80
2018-04-01T09:42:12.078Z,7.10
2018-04-01T09:44:39.149Z,3.90
2018-04-01T09:47:06.191Z,3.17
2018-04-01T09:49:33.290Z,4.03
2018-04-01T09:52:00.366Z,2.23
2018-04-01T09:54:27.407Z,2.97
2018-04-01T09:56:55.415Z,2.77
2018-04-01T09:59:23.495Z,4.50
2018-04-01T10:01:51.114Z,2.57
2018-04-01T10:04:18.762Z,2.20
2018-04-01T10:06:46.390Z,3.03
2018-04-01T10:09:13.962Z,2.23
2018-04-01T10:11:41.597Z,2.07
2018-04-01T10:14:09.318Z,2.73
2018-04-01T10:16:36.893Z,1.90
2018-04-01T10:19:04.498Z,3.80
2018-04-01T10:21:32.866Z,4.43
2018-04-01T10:24:00.437Z,3.60
2018-04-01T10:26:28.010Z,2.03
2018-04-01T10:28:55.715Z,1.50
2018-04-01T10:31:23.423Z,1.60
2018-04-01T10:33:51.011Z,3.83
2018-04-01T10:36:18.786Z,2.37
2018-04-01T10:38:46.420Z,2.07
2018-04-01T10:41:14.002Z,2.03
2018-04-01T10:43:43.497Z,2.97
2018-04-01T10:46:11.135Z,3.80
2018-04-01T10:48:38.710Z,2.00
2018-04-01T10:51:06.479Z,2.87
2018-04-01T10:53:34.150Z,4.47
2018-04-01T10:56:01.258Z,3.93
2018-04-01T10:58:28.407Z,2.20
2018-04-01T11:00:55.582Z,3.47
2018-04-01T11:03:22.719Z,2.00
2018-04-01T11:05:49.795Z,3.37
2018-04-01T11:08:16.889Z,3.40
2018-04-01T11:10:43.921Z,2.77
2018-04-01T11:13:11.281Z,5.07
2018-04-01T11:15:38.226Z,4.07
2018-04-01T11:18:05.259Z,2.13
2018-04-01T11:20:32.415Z,5.53
2018-04-01T11:22:59.515Z,3.50
2018-04-01T11:25:26.623Z,2.57
2018-04-01T11:27:53.705Z,3.27
2018-04-01T11:30:20.795Z,3.23
2018-04-01T11:32:47.826Z,2.60
2018-04-01T11:35:14.994Z,3.50
2018-04-01T11:37:42.091Z,1.70
2018-04-01T11:40:09.122Z,2.37
2018-04-01T11:42:36.350Z,1.83
2018-04-01T11:45:03.446Z,2.20
2018-04-01T11:47:30.548Z,6.10
2018-04-01T11:49:57.646Z,4.67
2018-04-01T11:52:25.376Z,1.97
2018-04-01T11:54:52.414Z,2.93
2018-04-01T11:57:19.509Z,3.43
2018-04-01T11:59:46.546Z,4.90
2018-04-01T12:02:13.736Z,4.57
2018-04-01T12:04:40.886Z,14.33
2018-04-01T12:07:08.764Z,4.53
2018-04-01T12:09:35.798Z,3.63
2018-04-01T12:12:02.930Z,2.23
2018-04-01T12:14:29.976Z,2.07
2018-04-01T12:16:57.074Z,2.33
2018-04-01T12:19:24.477Z,2.10
2018-04-01T12:21:51.579Z,2.53
2018-04-01T12:24:18.617Z,1.40
2018-04-01T12:26:45.701Z,2.90
2018-04-01T12:29:13.228Z,3.07
2018-04-01T12:31:40.335Z,2.57
2018-04-01T12:34:07.514Z,2.22
2018-04-01T12:36:34.552Z,4.72
2018-04-01T12:39:01.586Z,4.50
2018-04-01T12:41:29.406Z,3.08
2018-04-01T12:43:56.436Z,3.92
2018-04-01T12:46:23.489Z,2.20
2018-04-01T12:48:50.931Z,2.60
2018-04-01T12:51:18.052Z,4.37
2018-04-01T12:53:45.098Z,5.80
2018-04-01T12:56:12.233Z,3.97
2018-04-01T12:58:39.266Z,2.70
2018-04-01T13:01:06.367Z,3.90
2018-04-01T13:03:33.613Z,4.87
2018-04-01T13:06:00.635Z,2.77
2018-04-01T13:08:27.704Z,4.30
2018-04-01T13:10:54.841Z,5.93
2018-04-01T13:13:22.611Z,5.53
2018-04-01T13:15:49.678Z,4.13
2018-04-01T13:18:16.760Z,6.93
2018-04-01T13:20:43.866Z,3.83
2018-04-01T13:23:10.898Z,4.77
2018-04-01T13:25:39.421Z,4.67
2018-04-01T13:28:06.453Z,3.73
2018-04-01T13:30:33.550Z,4.50
2018-04-01T13:33:00.646Z,4.13
2018-04-01T13:35:27.685Z,4.20
2018-04-01T13:37:54.792Z,3.60
2018-04-01T13:40:21.893Z,3.73
2018-04-01T13:42:48.924Z,4.07
2018-04-01T13:45:15.950Z,4.83
2018-04-01T13:47:43.100Z,4.13
2018-04-01T13:50:10.199Z,3.53
2018-04-01T13:52:37.270Z,2.87
2018-04-01T13:55:04.598Z,6.33
2018-04-01T13:57:31.671Z,7.80
2018-04-01T13:59:58.770Z,4.50
2018-04-01T14:02:25.947Z,5.87
2018-04-01T14:04:53.046Z,4.57
2018-04-01T14:07:20.091Z,3.70
2018-04-01T14:09:47.281Z,5.90
2018-04-01T14:12:14.385Z,4.37
2018-04-01T14:14:41.483Z,6.80
2018-04-01T14:17:08.562Z,4.00
2018-04-01T14:19:35.596Z,4.97
2018-04-01T14:22:02.671Z,4.53
2018-04-01T14:24:29.803Z,3.60
2018-04-01T14:26:56.907Z,4.53
2018-04-01T14:29:23.977Z,3.43
2018-04-01T14:31:52.185Z,6.40
2018-04-01T14:34:19.213Z,4.70
2018-04-01T14:36:46.245Z,2.97
2018-04-01T14:39:13.550Z,4.47
2018-04-01T14:41:40.591Z,2.80
2018-04-01T14:44:07.631Z,4.43
2018-04-01T14:46:34.790Z,3.40
2018-04-01T14:49:01.811Z,3.73
2018-04-01T14:51:28.855Z,2.20
2018-04-01T14:53:56.007Z,4.80
2018-04-01T14:56:23.097Z,4.63
2018-04-01T14:58:50.201Z,4.10
2018-04-01T15:01:17.343Z,5.93
2018-04-01T15:03:44.372Z,5.40
2018-04-01T15:06:11.554Z,4.03
2018-04-01T15:08:38.742Z,3.90
2018-04-01T15:11:05.775Z,2.70
2018-04-01T15:13:32.837Z,1.67
2018-04-01T15:15:59.978Z,3.93
2018-04-01T15:18:27.019Z,2.57
2018-04-01T15:20:54.059Z,1.57
2018-04-01T15:23:21.138Z,2.97
2018-04-01T15:25:48.690Z,2.83
2018-04-01T15:28:15.724Z,3.60
2018-04-01T15:30:42.807Z,2.07
2018-04-01T15:33:09.874Z,1.27
2018-04-01T15:35:36.909Z,0.77
2018-04-01T15:38:04.058Z,1.50
2018-04-01T15:40:31.108Z,2.07
2018-04-01T15:42:59.128Z,0.77
2018-04-01T15:45:26.201Z,0.80
2018-04-01T15:47:53.244Z,0.73
2018-04-01T15:50:20.278Z,0.40
2018-04-01T15:52:47.560Z,0.80
2018-04-01T15:55:14.665Z,1.23
2018-04-01T15:57:41.754Z,1.37
2018-04-01T16:00:08.904Z,2.40
2018-04-01T16:02:35.944Z,0.73
2018-04-01T16:05:03.010Z,2.43
2018-04-01T16:07:30.219Z,11.07
2018-04-01T16:09:57.326Z,6.40
2018-04-01T16:12:24.350Z,3.00
2018-04-01T16:14:51.594Z,2.20
2018-04-01T16:17:18.738Z,1.10
2018-04-01T16:19:45.779Z,1.50
2018-04-01T16:22:13.130Z,1.37
2018-04-01T16:24:40.157Z,1.23
2018-04-01T16:27:07.271Z,1.77
2018-04-01T16:29:34.363Z,1.63
2018-04-01T16:32:02.120Z,2.13
2018-04-01T16:34:29.234Z,1.23
2018-04-01T16:36:56.337Z,1.10
2018-04-01T16:39:23.455Z,1.53
2018-04-01T16:41:50.511Z,1.00
2018-04-01T16:44:17.715Z,1.53
2018-04-01T16:46:44.762Z,1.00
2018-04-01T16:49:11.878Z,1.73
2018-04-01T16:51:39.003Z,1.70
2018-04-01T16:54:06.112Z,1.77
2018-04-01T16:56:33.164Z,1.00
2018-04-01T16:59:00.588Z,0.73
2018-04-01T17:01:27.690Z,1.90
2018-04-01T17:03:54.726Z,0.83
2018-04-01T17:06:21.806Z,2.37
2018-04-01T17:08:49.395Z,3.30
2018-04-01T17:11:16.427Z,1.70
2018-04-01T17:13:43.599Z,0.53
2018-04-01T17:16:11.262Z,1.80
2018-04-01T17:18:38.336Z,1.20
2018-04-01T17:21:05.482Z,1.90
2018-04-01T17:23:32.524Z,1.63
2018-04-01T17:25:59.584Z,1.70
2018-04-01T17:28:26.726Z,3.00
2018-04-01T17:30:53.756Z,2.63
2018-04-01T17:33:20.800Z,3.73
2018-04-01T17:35:47.890Z,1.60
2018-04-01T17:38:14.975Z,6.47
2018-04-01T17:40:42.008Z,1.10
2018-04-01T17:43:09.347Z,1.40
2018-04-01T17:45:36.395Z,1.60
2018-04-01T17:48:03.491Z,1.30
2018-04-01T17:50:30.588Z,1.13
2018-04-01T17:52:57.628Z,1.40
2018-04-01T17:55:24.726Z,2.03
2018-04-01T17:57:51.810Z,1.00
2018-04-01T18:00:18.920Z,0.70
2018-04-01T18:02:45.982Z,0.33
2018-04-01T18:05:13.086Z,0.67
2018-04-01T18:07:40.109Z,0.70
2018-04-01T18:10:07.273Z,1.13
2018-04-01T18:12:34.351Z,0.50
2018-04-01T18:15:01.428Z,0.90
2018-04-01T18:17:28.469Z,0.50
2018-04-01T18:19:55.662Z,0.60
2018-04-01T18:22:22.694Z,0.90
2018-04-01T18:24:49.826Z,2.70
2018-04-01T18:27:16.983Z,0.60
2018-04-01T18:29:44.077Z,1.27
2018-04-01T18:32:11.265Z,1.30
2018-04-01T18:34:38.392Z,1.43
2018-04-01T18:37:05.511Z,2.30
2018-04-01T18:39:32.618Z,2.77
2018-04-01T18:41:59.765Z,1.33
2018-04-01T18:44:26.794Z,1.03
2018-04-01T18:46:53.831Z,0.70
2018-04-01T18:49:21.202Z,0.70
2018-04-01T18:51:48.251Z,0.70
2018-04-01T18:54:15.289Z,1.90
2018-04-01T18:56:42.385Z,0.97
2018-04-01T18:59:10.350Z,0.97
2018-04-01T19:01:37.382Z,0.73
2018-04-01T19:04:04.523Z,0.90
2018-04-01T19:06:31.550Z,1.00
2018-04-01T19:08:58.586Z,0.90
2018-04-01T19:11:25.888Z,1.20
2018-04-01T19:13:52.934Z,2.10
2018-04-01T19:16:21.179Z,0.90
2018-04-01T19:18:48.834Z,0.97
2018-04-01T19:21:16.442Z,1.07
2018-04-01T19:23:44.011Z,1.10
2018-04-01T19:26:11.834Z,1.07
2018-04-01T19:28:39.413Z,1.27
2018-04-01T19:31:07.000Z,1.20
2018-04-01T19:33:34.702Z,1.40
2018-04-01T19:36:02.630Z,1.60
2018-04-01T19:38:30.194Z,1.63
2018-04-01T19:40:57.926Z,2.20
2018-04-01T19:43:25.565Z,1.23
2018-04-01T19:45:53.195Z,1.40
2018-04-01T19:48:20.816Z,1.70
2018-04-01T19:50:49.086Z,1.50
2018-04-01T19:53:16.710Z,1.63
2018-04-01T19:55:44.409Z,1.57
2018-04-01T19:58:12.067Z,1.30
2018-04-01T20:00:39.643Z,1.60
2018-04-01T20:03:07.918Z,2.60
2018-04-01T20:05:35.491Z,2.17
2018-04-01T20:08:03.127Z,1.47
2018-04-01T20:10:30.747Z,2.30
2018-04-01T20:12:58.574Z,2.17
2018-04-01T20:15:26.218Z,2.17
2018-04-01T20:17:53.836Z,3.70
2018-04-01T20:20:21.428Z,2.13
2018-04-01T20:22:49.043Z,2.40
2018-04-01T20:25:16.657Z,2.50
2018-04-01T20:27:44.233Z,6.03
2018-04-01T20:30:11.812Z,4.33
2018-04-01T20:32:39.437Z,2.00
2018-04-01T20:35:07.028Z,2.57
2018-04-01T20:37:35.292Z,1.60
2018-04-01T20:40:02.998Z,3.40
2018-04-01T20:42:30.572Z,4.00
2018-04-01T20:44:58.207Z,7.27
2018-04-01T20:47:26.357Z,6.30
2018-04-01T20:49:53.933Z,10.50
2018-04-01T20:52:21.571Z,13.03
2018-04-01T20:54:49.648Z,4.97
2018-04-01T20:57:17.243Z,2.17
2018-04-01T20:59:44.821Z,1.77
2018-04-01T21:02:12.441Z,1.53
2018-04-01T21:04:40.011Z,1.70
2018-04-01T21:07:07.602Z,2.03
2018-04-01T21:09:35.374Z,1.73
2018-04-01T21:12:02.973Z,1.13
2018-04-01T21:14:30.684Z,3.70
2018-04-01T21:16:58.363Z,1.57
2018-04-01T21:19:25.981Z,1.00
2018-04-01T21:21:53.615Z,1.33
2018-04-01T21:24:21.339Z,1.10
2018-04-01T21:26:48.921Z,1.37
2018-04-01T21:29:17.058Z,1.53
2018-04-01T21:31:45.022Z,1.50
2018-04-01T21:34:12.590Z,1.60
2018-04-01T21:36:40.246Z,1.50
2018-04-01T21:39:08.719Z,1.93
2018-04-01T21:41:36.315Z,1.53
2018-04-01T21:44:03.971Z,1.60
2018-04-01T21:46:31.676Z,2.60
2018-04-01T21:48:59.325Z,2.17
2018-04-01T21:51:26.955Z,1.83
2018-04-01T21:53:54.865Z,2.00
2018-04-01T21:56:22.504Z,1.67
2018-04-01T21:58:50.084Z,2.00
2018-04-01T22:01:17.749Z,2.13
2018-04-01T22:03:45.314Z,2.00
2018-04-01T22:06:12.893Z,1.67
2018-04-01T22:08:40.521Z,1.70
2018-04-01T22:11:08.100Z,1.87
2018-04-01T22:13:35.691Z,2.50
2018-04-01T22:16:03.598Z,2.20
2018-04-01T22:18:31.168Z,2.00
2018-04-01T22:20:58.734Z,2.00
2018-04-01T22:23:26.354Z,1.93
2018-04-01T22:25:53.929Z,2.47
2018-04-01T22:28:21.500Z,2.00
2018-04-01T22:30:49.225Z,2.00
2018-04-01T22:33:16.792Z,2.20
2018-04-01T22:35:44.396Z,1.93
2018-04-01T22:38:12.724Z,2.10
2018-04-01T22:40:40.945Z,2.27
2018-04-01T22:43:08.570Z,2.93
2018-04-01T22:45:36.182Z,2.23
2018-04-01T22:48:03.797Z,2.50
2018-04-01T22:50:31.357Z,2.43
2018-04-01T22:52:59.040Z,2.00
2018-04-01T22:55:26.610Z,2.37
2018-04-01T22:57:54.200Z,2.27
2018-04-01T23:00:21.925Z,2.73
2018-04-01T23:02:49.576Z,3.10
2018-04-01T23:05:17.196Z,2.97
2018-04-01T23:07:44.989Z,2.43
2018-04-01T23:10:12.568Z,2.50
2018-04-01T23:12:40.141Z,3.77
2018-04-01T23:15:07.868Z,3.37
2018-04-01T23:17:35.674Z,4.27
2018-04-01T23:20:03.304Z,3.43
2018-04-01T23:22:30.993Z,3.47
2018-04-01T23:24:58.563Z,3.17
2018-04-01T23:27:26.206Z,3.23
2018-04-01T23:29:53.929Z,2.93
2018-04-01T23:32:21.490Z,2.70
2018-04-01T23:34:49.064Z,3.07
2018-04-01T23:37:16.702Z,2.37
2018-04-01T23:39:44.304Z,3.07
2018-04-01T23:42:11.875Z,3.57
2018-04-01T23:44:39.601Z,2.20
2018-04-01T23:47:07.167Z,2.47
2018-04-01T23:49:34.748Z,2.43
2018-04-01T23:52:02.369Z,2.10
2018-04-01T23:54:29.999Z,2.00
2018-04-01T23:56:57.630Z,2.33
2018-04-01T23:59:25.310Z,2.20
